Time;durP1;ratioP1;P1;durP2;ratioP2;P2;SDS_P1;SDS_P2;PMS_P1;PMS_P2;Temp;Humidity;BMP_temperature;BMP_pressure;BME280_temperature;BME280_humidity;BME280_pressure;Samples;Min_cycle;Max_cycle;Signal;HPM_P1;HPM_P2
2021/07/01 00:02:00;;;;;;;5.60;2.00;;;;;;;21.26;60.57;99592.00;5040340;27;98085;-77
2021/07/01 00:04:27;;;;;;;3.13;2.10;;;;;;;21.27;60.14;99587.53;5050712;27;97349;-76
2021/07/01 00:06:52;;;;;;;3.03;2.10;;;;;;;21.28;59.92;99591.88;5036874;27;97276;-79
2021/07/01 00:09:19;;;;;;;2.95;2.15;;;;;;;21.33;59.67;99593.16;5052203;27;101111;-76
2021/07/01 00:11:47;;;;;;;2.60;1.90;;;;;;;21.36;59.53;99590.25;5082020;27;98676;-76
2021/07/01 00:14:13;;;;;;;3.72;1.80;;;;;;;21.32;59.31;99579.94;5036149;27;97270;-76
2021/07/01 00:16:39;;;;;;;1.98;1.55;;;;;;;21.34;59.08;99584.16;5051197;27;97175;-76
2021/07/01 00:19:06;;;;;;;5.15;2.05;;;;;;;21.27;59.17;99584.88;5017754;27;100997;-76
2021/07/01 00:21:32;;;;;;;4.45;1.98;;;;;;;21.30;58.85;99585.44;5024683;27;101647;-77
2021/07/01 00:23:59;;;;;;;2.97;1.98;;;;;;;21.31;58.41;99587.09;5064090;27;97460;-78
2021/07/01 00:26:24;;;;;;;2.78;1.90;;;;;;;21.35;58.37;99588.53;5046929;27;97787;-77
2021/07/01 00:28:50;;;;;;;6.00;2.80;;;;;;;21.35;57.91;99588.53;5047855;27;101686;-78
2021/07/01 00:31:16;;;;;;;3.15;1.52;;;;;;;21.29;57.99;99583.72;5023258;27;101370;-78
2021/07/01 00:33:41;;;;;;;2.10;1.60;;;;;;;21.33;58.04;99576.31;5046833;27;97233;-78
2021/07/01 00:36:08;;;;;;;3.00;1.50;;;;;;;21.41;57.45;99580.00;5049795;27;96882;-78
2021/07/01 00:38:34;;;;;;;1.88;1.60;;;;;;;21.37;57.31;99575.91;5051584;27;100861;-78
2021/07/01 00:40:59;;;;;;;2.00;1.50;;;;;;;21.37;57.71;99575.06;5052879;27;99988;-78
2021/07/01 00:43:25;;;;;;;4.18;1.92;;;;;;;21.47;57.60;99573.25;5039979;27;96774;-78
2021/07/01 00:45:51;;;;;;;1.52;1.30;;;;;;;21.45;57.66;99572.56;5030266;27;98149;-79
2021/07/01 00:48:17;;;;;;;3.08;1.65;;;;;;;21.55;57.18;99575.22;5034249;27;101649;-78
2021/07/01 00:50:43;;;;;;;2.10;1.60;;;;;;;21.51;57.41;99565.81;5069954;27;98103;-79
2021/07/01 00:53:09;;;;;;;4.88;1.50;;;;;;;21.44;57.40;99561.03;5034956;27;97376;-78
2021/07/01 00:55:34;;;;;;;1.45;1.35;;;;;;;21.38;57.47;99558.06;5036351;27;97178;-78
2021/07/01 00:58:00;;;;;;;4.78;1.70;;;;;;;21.46;57.58;99567.06;5034158;27;97485;-79
2021/07/01 01:03:11;;;;;;;1.83;1.55;;;;;;;21.43;57.55;99558.50;5052126;27;97069;-78
2021/07/01 01:05:36;;;;;;;1.98;1.70;;;;;;;21.34;57.97;99554.78;5043282;27;97382;-78
2021/07/01 01:08:02;;;;;;;3.88;1.50;;;;;;;21.37;57.64;99551.88;5048333;27;101647;-79
2021/07/01 01:10:28;;;;;;;2.85;1.80;;;;;;;21.40;57.72;99550.75;5052741;27;101018;-78
2021/07/01 01:13:24;;;;;;;3.70;1.85;;;;;;;21.33;57.86;99555.78;5046665;27;97170;-79
2021/07/01 01:16:08;;;;;;;2.05;1.60;;;;;;;21.27;57.84;99548.34;5056042;27;96903;-78
2021/07/01 01:18:34;;;;;;;3.30;2.10;;;;;;;21.30;57.90;99547.22;5036060;27;100180;-78
2021/07/01 01:21:01;;;;;;;3.70;1.83;;;;;;;21.23;57.94;99544.25;5048856;27;101113;-79
2021/07/01 01:23:27;;;;;;;2.47;1.50;;;;;;;21.18;58.08;99541.19;5043569;27;96751;-78
2021/07/01 01:25:58;;;;;;;4.05;1.48;;;;;;;21.22;58.02;99529.22;5050055;27;97108;-78
2021/07/01 01:28:31;;;;;;;4.43;1.83;;;;;;;21.21;58.07;99530.22;5049253;27;98171;-78
2021/07/01 01:30:57;;;;;;;2.45;1.67;;;;;;;21.16;58.16;99527.97;5048666;27;98336;-78
2021/07/01 01:33:24;;;;;;;3.03;1.90;;;;;;;21.18;58.21;99534.00;5045936;27;96778;-79
2021/07/01 01:35:50;;;;;;;2.75;2.03;;;;;;;21.14;58.62;99524.56;5052877;27;97062;-78
2021/07/01 01:38:16;;;;;;;2.78;1.83;;;;;;;21.14;58.61;99531.75;5050921;27;101373;-78
2021/07/01 01:40:46;;;;;;;2.95;2.30;;;;;;;21.16;58.31;99525.28;5052270;27;101709;-78
2021/07/01 01:43:13;;;;;;;4.95;2.20;;;;;;;21.10;58.65;99525.00;5035575;27;97259;-78
2021/07/01 01:45:40;;;;;;;2.70;1.77;;;;;;;20.99;59.12;99520.63;5056580;27;97244;-78
2021/07/01 01:48:06;;;;;;;3.15;2.00;;;;;;;21.03;59.15;99530.91;5031595;27;101882;-78
2021/07/01 01:50:32;;;;;;;2.90;2.15;;;;;;;21.02;59.29;99528.38;5055246;27;97930;-78
2021/07/01 01:52:58;;;;;;;8.20;2.00;;;;;;;21.04;59.27;99526.41;5038322;27;97208;-78
2021/07/01 01:55:23;;;;;;;3.33;1.88;;;;;;;21.00;59.37;99531.19;5035258;27;97241;-78
2021/07/01 01:57:51;;;;;;;4.50;2.05;;;;;;;20.97;59.53;99539.47;5050857;27;100709;-78
2021/07/01 02:00:19;;;;;;;4.88;2.08;;;;;;;20.96;59.80;99536.91;5051415;27;97893;-78
2021/07/01 02:02:57;;;;;;;3.87;1.97;;;;;;;20.88;60.04;99532.25;5071084;27;97129;-77
2021/07/01 02:05:46;;;;;;;4.05;1.90;;;;;;;20.86;60.12;99526.25;5057862;27;97183;-78
2021/07/01 02:08:12;;;;;;;5.32;1.80;;;;;;;20.84;60.22;99532.69;5046749;27;102023;-77
2021/07/01 02:10:38;;;;;;;2.70;1.58;;;;;;;20.84;60.10;99536.19;5035609;27;101693;-78
2021/07/01 02:13:10;;;;;;;4.28;1.90;;;;;;;20.88;60.14;99529.59;5067432;27;97054;-78
2021/07/01 02:15:40;;;;;;;3.35;1.98;;;;;;;20.87;60.27;99527.09;5056330;27;97429;-78
2021/07/01 02:18:07;;;;;;;4.00;1.98;;;;;;;20.86;60.10;99533.41;5072195;27;97649;-78
2021/07/01 02:20:34;;;;;;;3.80;2.13;;;;;;;20.96;60.01;99532.41;5055994;27;101552;-77
2021/07/01 02:22:59;;;;;;;3.35;2.25;;;;;;;20.92;60.15;99532.84;5055488;27;96694;-78
2021/07/01 02:25:37;;;;;;;6.70;2.00;;;;;;;20.88;60.24;99528.75;5042720;27;97023;-78
2021/07/01 02:28:29;;;;;;;3.40;2.15;;;;;;;20.86;60.25;99539.56;5068976;27;99314;-77
2021/07/01 02:31:13;;;;;;;4.97;2.10;;;;;;;20.84;60.49;99544.19;5054561;27;97190;-78
2021/07/01 02:33:40;;;;;;;3.65;1.80;;;;;;;20.78;60.63;99536.75;5039086;27;96662;-77
2021/07/01 02:36:06;;;;;;;4.85;2.03;;;;;;;20.76;60.55;99541.34;5043285;27;97240;-78
2021/07/01 02:38:55;;;;;;;9.10;2.50;;;;;;;20.66;60.94;99551.16;5058993;27;97565;-78
2021/07/01 02:41:20;;;;;;;4.15;2.17;;;;;;;20.70;60.74;99549.91;5051870;27;101538;-77
2021/07/01 02:43:48;;;;;;;3.22;1.90;;;;;;;20.67;60.86;99558.19;5055858;27;96898;-78
2021/07/01 02:46:44;;;;;;;4.43;2.05;;;;;;;20.65;60.72;99555.63;5020184;27;97071;-78
2021/07/01 02:49:16;;;;;;;8.10;2.47;;;;;;;20.65;60.96;99555.63;5071296;27;101560;-77
2021/07/01 02:51:47;;;;;;;4.15;2.20;;;;;;;20.71;60.57;99555.13;5055500;27;100314;-78
2021/07/01 02:54:14;;;;;;;2.95;2.10;;;;;;;20.68;60.65;99559.84;5036889;27;97264;-78
2021/07/01 02:56:43;;;;;;;4.15;2.25;;;;;;;20.68;60.80;99566.06;5047136;27;96911;-78
2021/07/01 02:59:14;;;;;;;4.15;2.30;;;;;;;20.67;60.79;99571.50;5035162;27;100816;-77
2021/07/01 03:01:59;;;;;;;7.75;2.03;;;;;;;20.70;60.77;99571.25;5049135;27;97109;-77
2021/07/01 03:04:28;;;;;;;5.13;1.88;;;;;;;20.67;60.76;99569.69;5051939;27;96735;-77
2021/07/01 03:06:53;;;;;;;7.30;1.73;;;;;;;20.72;60.42;99561.28;5029425;27;97058;-77
2021/07/01 03:09:19;;;;;;;3.58;2.17;;;;;;;20.68;60.35;99570.53;5071141;27;101292;-77
2021/07/01 03:11:45;;;;;;;2.97;1.88;;;;;;;20.63;60.69;99576.28;5066539;27;100317;-77
2021/07/01 03:14:11;;;;;;;3.78;1.77;;;;;;;20.66;60.67;99569.84;5039899;27;97334;-77
2021/07/01 03:16:37;;;;;;;2.47;1.50;;;;;;;20.68;60.34;99565.19;5038593;27;96993;-77
2021/07/01 03:19:03;;;;;;;4.45;1.80;;;;;;;20.60;60.69;99567.72;5054095;27;98334;-78
2021/07/01 03:21:47;;;;;;;7.07;1.77;;;;;;;20.68;60.42;99570.53;5040866;27;97053;-77
2021/07/01 03:24:13;;;;;;;3.40;1.65;;;;;;;20.76;60.23;99568.88;5050832;27;97064;-77
2021/07/01 03:26:39;;;;;;;6.40;1.90;;;;;;;20.69;60.47;99572.22;5035122;27;97996;-77
2021/07/01 03:29:05;;;;;;;3.45;2.00;;;;;;;20.68;60.54;99574.06;5054219;27;101228;-78
2021/07/01 03:31:31;;;;;;;3.35;1.60;;;;;;;20.69;60.33;99570.41;5071438;27;98449;-78
2021/07/01 03:33:56;;;;;;;4.75;1.90;;;;;;;20.59;60.45;99580.16;5038148;27;97043;-77
2021/07/01 03:36:22;;;;;;;4.25;2.58;;;;;;;20.56;60.63;99580.44;5054408;27;97427;-77
2021/07/01 03:39:03;;;;;;;3.90;1.80;;;;;;;20.65;60.45;99573.47;5053311;27;97991;-77
2021/07/01 03:41:52;;;;;;;3.35;2.08;;;;;;;20.67;60.75;99568.84;5030324;27;101759;-77
2021/07/01 03:44:19;;;;;;;5.05;2.10;;;;;;;20.65;60.85;99568.97;5036442;27;97222;-76
2021/07/01 03:46:45;;;;;;;10.55;1.80;;;;;;;20.69;60.63;99566.91;5035809;27;97080;-77
2021/07/01 03:49:12;;;;;;;4.72;1.70;;;;;;;20.71;60.48;99568.44;5055206;27;98113;-77
2021/07/01 03:51:56;;;;;;;4.78;2.03;;;;;;;20.73;60.48;99563.81;5058556;27;97065;-77
2021/07/01 03:54:33;;;;;;;4.63;2.13;;;;;;;20.86;60.13;99570.75;5039571;27;97036;-77
2021/07/01 03:57:03;;;;;;;3.42;2.10;;;;;;;21.00;59.67;99563.19;5054104;27;97262;-77
2021/07/01 03:59:41;;;;;;;7.60;2.30;;;;;;;21.11;59.73;99575.56;5041244;27;101457;-77
2021/07/01 04:02:25;;;;;;;4.78;2.10;;;;;;;21.25;59.18;99569.81;5053151;27;97082;-77
2021/07/01 04:04:53;;;;;;;6.40;2.45;;;;;;;21.29;58.91;99573.06;5038077;27;97172;-77
2021/07/01 04:07:19;;;;;;;2.97;1.80;;;;;;;21.25;58.84;99575.16;5036528;27;97069;-77
2021/07/01 04:09:45;;;;;;;5.40;2.17;;;;;;;21.08;59.64;99570.50;5034376;27;101415;-77
2021/07/01 04:12:31;;;;;;;3.42;1.88;;;;;;;21.03;59.64;99564.72;5052742;27;98884;-77
2021/07/01 04:15:15;;;;;;;6.43;1.50;;;;;;;21.05;59.30;99565.44;5067275;27;97154;-77
2021/07/01 04:18:07;;;;;;;5.70;1.50;;;;;;;21.10;59.02;99575.72;5068371;27;97285;-77
2021/07/01 04:20:51;;;;;;;3.13;1.60;;;;;;;21.18;58.83;99574.03;5070079;27;97203;-77
2021/07/01 04:23:35;;;;;;;5.25;1.73;;;;;;;21.07;58.95;99594.66;5053858;27;97065;-77
2021/07/01 04:26:29;;;;;;;8.30;2.20;;;;;;;21.06;58.95;99601.84;5050178;27;96874;-77
2021/07/01 04:28:57;;;;;;;5.10;1.70;;;;;;;21.04;58.84;99603.78;5053598;27;97350;-77
2021/07/01 04:31:23;;;;;;;5.07;1.60;;;;;;;21.00;58.81;99605.00;5028252;27;100771;-77
2021/07/01 04:33:52;;;;;;;2.47;1.50;;;;;;;20.86;59.10;99611.59;5032102;27;101186;-77
2021/07/01 04:36:18;;;;;;;4.90;1.50;;;;;;;20.81;58.96;99613.81;5024696;27;97307;-77
2021/07/01 04:38:45;;;;;;;4.38;1.45;;;;;;;20.91;59.06;99608.50;5033134;27;97175;-77
2021/07/01 04:41:19;;;;;;;4.15;1.70;;;;;;;20.96;58.59;99614.28;5027166;27;101238;-77
2021/07/01 04:43:47;;;;;;;4.63;1.27;;;;;;;20.89;59.04;99613.16;5050523;27;99205;-77
2021/07/01 04:46:13;;;;;;;4.55;1.38;;;;;;;20.95;59.00;99613.44;5050336;27;97237;-77
2021/07/01 04:48:43;;;;;;;4.43;1.70;;;;;;;20.95;58.96;99617.94;5050319;27;97194;-77
2021/07/01 04:51:09;;;;;;;2.75;1.40;;;;;;;21.04;58.54;99619.78;5049035;27;101153;-78
2021/07/01 04:54:07;;;;;;;3.25;1.33;;;;;;;20.90;59.12;99609.50;5027053;27;97720;-78
2021/07/01 04:56:51;;;;;;;2.50;1.30;;;;;;;21.01;58.66;99631.56;5035461;27;97175;-77
2021/07/01 04:59:20;;;;;;;2.70;1.48;;;;;;;21.03;58.76;99626.97;5051976;27;97532;-77
2021/07/01 05:02:08;;;;;;;3.00;1.23;;;;;;;21.18;58.47;99627.41;5034620;27;97952;-77
2021/07/01 05:04:34;;;;;;;5.88;1.63;;;;;;;21.17;58.29;99628.38;5053572;27;98387;-77
2021/07/01 05:07:00;;;;;;;3.20;1.55;;;;;;;21.20;58.27;99620.09;5053633;27;97055;-77
2021/07/01 05:09:26;;;;;;;6.72;1.67;;;;;;;21.32;58.38;99614.63;5035721;27;97358;-77
2021/07/01 05:11:52;;;;;;;3.13;1.50;;;;;;;21.40;57.48;99605.00;5037668;27;101064;-77
2021/07/01 05:14:18;;;;;;;4.55;1.60;;;;;;;21.44;57.86;99614.44;5045312;27;101540;-77
2021/07/01 05:16:47;;;;;;;5.63;1.42;;;;;;;21.41;57.51;99628.06;5025440;27;96911;-77
2021/07/01 05:19:13;;;;;;;5.65;1.60;;;;;;;21.44;57.43;99619.75;5036060;27;97589;-77
2021/07/01 05:21:54;;;;;;;5.55;1.90;;;;;;;21.32;58.12;99623.50;5057916;27;100205;-77
2021/07/01 05:24:46;;;;;;;4.05;1.95;;;;;;;21.30;58.55;99632.63;5035785;27;98500;-77
2021/07/01 05:27:14;;;;;;;3.05;1.65;;;;;;;21.18;59.35;99621.25;5072712;27;97054;-76
2021/07/01 05:30:06;;;;;;;2.72;1.60;;;;;;;21.06;59.79;99627.63;5043909;27;96978;-78
2021/07/01 05:32:50;;;;;;;1.75;1.35;;;;;;;20.99;59.63;99630.84;5049409;27;97408;-77
2021/07/01 05:35:25;;;;;;;3.08;1.35;;;;;;;21.05;60.00;99636.63;5039274;27;101132;-77
2021/07/01 05:37:53;;;;;;;1.30;1.20;;;;;;;21.06;59.30;99633.84;5056678;27;96838;-77
2021/07/01 05:40:22;;;;;;;6.40;1.50;;;;;;;20.97;59.87;99642.63;5055132;27;97306;-77
2021/07/01 05:42:47;;;;;;;5.55;1.17;;;;;;;20.80;60.32;99630.81;5043304;27;101606;-77
2021/07/01 05:45:13;;;;;;;3.75;1.88;;;;;;;20.87;60.60;99644.44;5052478;27;101239;-77
2021/07/01 05:47:40;;;;;;;4.25;1.60;;;;;;;20.80;61.02;99639.66;5056525;27;98251;-77
2021/07/01 05:50:07;;;;;;;2.63;1.30;;;;;;;20.83;61.01;99646.53;5073768;27;97049;-78
2021/07/01 05:52:34;;;;;;;3.38;1.63;;;;;;;20.81;61.44;99653.81;5051918;27;101332;-77
2021/07/01 05:55:00;;;;;;;2.78;1.40;;;;;;;20.76;61.06;99656.03;5053205;27;99864;-77
2021/07/01 05:57:28;;;;;;;2.60;1.25;;;;;;;20.83;60.57;99653.66;5041104;27;96925;-77
2021/07/01 05:59:54;;;;;;;2.80;1.70;;;;;;;20.72;61.46;99658.13;5058144;27;98137;-77
2021/07/01 06:02:21;;;;;;;3.47;1.50;;;;;;;20.85;60.95;99652.56;5056281;27;100005;-77
2021/07/01 06:04:47;;;;;;;5.30;1.40;;;;;;;20.76;60.96;99661.38;5030192;27;101467;-76
2021/07/01 06:07:50;;;;;;;6.23;1.47;;;;;;;20.71;61.47;99660.91;5057918;27;97202;-76
2021/07/01 06:10:17;;;;;;;4.07;1.67;;;;;;;20.53;62.26;99664.19;5030942;27;97117;-76
2021/07/01 06:12:43;;;;;;;3.15;1.70;;;;;;;20.33;62.87;99657.91;5028123;27;101706;-76
2021/07/01 06:15:09;;;;;;;7.35;2.25;;;;;;;20.22;64.07;99655.28;5059936;27;97988;-79
2021/07/01 06:17:35;;;;;;;5.60;2.45;;;;;;;20.15;64.39;99656.78;5044930;27;97319;-76
2021/07/01 06:20:05;;;;;;;7.63;1.70;;;;;;;20.34;64.02;99650.75;5045030;27;97171;-76
2021/07/01 06:22:31;;;;;;;3.25;1.65;;;;;;;20.78;63.01;99648.75;5030584;27;101701;-76
2021/07/01 06:24:57;;;;;;;3.40;1.63;;;;;;;21.24;61.15;99642.88;5033699;27;101496;-76
2021/07/01 06:27:32;;;;;;;2.83;1.70;;;;;;;21.74;59.63;99642.00;5071243;27;96999;-76
2021/07/01 06:29:58;;;;;;;2.67;1.63;;;;;;;22.28;57.79;99643.25;5051616;27;97352;-77
2021/07/01 06:32:23;;;;;;;2.55;1.48;;;;;;;22.05;58.46;99647.16;5048215;27;98579;-89
2021/07/01 06:34:49;;;;;;;5.15;1.60;;;;;;;21.89;58.79;99648.59;5037552;27;98430;-87
2021/07/01 06:37:15;;;;;;;3.03;1.50;;;;;;;21.94;58.46;99650.84;5048831;27;96766;-87
2021/07/01 06:40:19;;;;;;;3.83;1.58;;;;;;;22.69;55.94;99651.00;5007096;28;97448;-87
2021/07/01 06:43:04;;;;;;;5.70;2.22;;;;;;;22.35;56.60;99646.19;4999372;28;97207;-87
2021/07/01 06:45:49;;;;;;;4.05;1.60;;;;;;;23.43;54.07;99655.47;5052692;27;97078;-88
2021/07/01 06:48:33;;;;;;;2.42;1.90;;;;;;;25.70;48.57;99648.25;5074762;27;96831;-88
2021/07/01 06:51:19;;;;;;;4.22;1.55;;;;;;;24.78;49.99;99642.72;5024576;27;97297;-87
2021/07/01 06:54:04;;;;;;;1.95;1.33;;;;;;;25.15;50.38;99646.91;5055972;27;97142;-85
2021/07/01 06:56:49;;;;;;;4.10;1.73;;;;;;;25.13;49.43;99646.19;5052147;27;98540;-85
2021/07/01 06:59:15;;;;;;;4.88;1.65;;;;;;;24.42;50.53;99652.69;5037516;27;97072;-86
2021/07/01 07:01:41;;;;;;;2.05;1.25;;;;;;;24.56;49.83;99651.31;5056217;27;96796;-87
2021/07/01 07:04:07;;;;;;;2.72;1.60;;;;;;;25.03;48.66;99648.19;5053609;27;101836;-86
2021/07/01 07:06:35;;;;;;;5.15;1.65;;;;;;;25.12;47.66;99649.06;5050482;27;101569;-87
2021/07/01 07:09:01;;;;;;;5.38;1.75;;;;;;;24.49;48.62;99651.06;5047338;27;97353;-87
2021/07/01 07:11:27;;;;;;;13.10;2.20;;;;;;;27.63;43.25;99644.63;5047910;27;97040;-87
2021/07/01 07:13:53;;;;;;;4.38;1.65;;;;;;;27.15;43.89;99647.44;5044166;27;101122;-88
2021/07/01 07:16:18;;;;;;;3.30;1.40;;;;;;;26.14;45.27;99639.88;5059971;27;101795;-88
2021/07/01 07:18:44;;;;;;;6.10;1.73;;;;;;;28.82;40.00;99643.94;5073726;27;96750;-89
2021/07/01 07:21:17;;;;;;;2.28;1.42;;;;;;;29.46;39.37;99639.75;5038722;27;96918;-86
2021/07/01 07:23:43;;;;;;;2.60;1.40;;;;;;;28.58;40.07;99641.50;5039797;27;101554;-85
2021/07/01 07:26:19;;;;;;;3.42;1.60;;;;;;;29.66;38.66;99643.53;5034371;27;100502;-84
2021/07/01 07:28:53;;;;;;;3.70;1.40;;;;;;;28.58;40.74;99647.75;5045880;27;97081;-86
2021/07/01 07:31:25;;;;;;;3.05;1.45;;;;;;;29.95;38.97;99630.94;5049615;27;97798;-88
2021/07/01 07:33:55;;;;;;;1.63;1.45;;;;;;;31.30;36.53;99641.41;5036675;27;101639;-86
2021/07/01 07:36:22;;;;;;;2.35;1.52;;;;;;;30.26;38.46;99633.31;5053802;27;101202;-88
2021/07/01 07:38:50;;;;;;;6.43;1.75;;;;;;;29.62;39.82;99634.16;5052926;27;96695;-89
2021/07/01 07:41:15;;;;;;;6.00;1.75;;;;;;;29.89;38.39;99631.72;5048519;27;97188;-88
2021/07/01 07:43:41;;;;;;;1.50;1.30;;;;;;;28.69;40.63;99649.16;5066354;27;98305;-87
2021/07/01 07:46:08;;;;;;;3.90;1.60;;;;;;;30.19;37.75;99638.63;5029427;27;101399;-83
2021/07/01 07:48:33;;;;;;;2.33;1.80;;;;;;;32.16;34.45;99627.19;5051422;27;98475;-87
2021/07/01 07:51:01;;;;;;;18.23;4.57;;;;;;;33.17;33.19;99634.13;5027910;27;97311;-85
2021/07/01 07:53:30;;;;;;;3.95;1.77;;;;;;;33.94;32.11;99629.50;5035006;27;101244;-84
2021/07/01 07:56:07;;;;;;;23.95;6.78;;;;;;;32.71;33.26;99628.84;5037533;27;101650;-77
2021/07/01 07:58:35;;;;;;;18.63;3.63;;;;;;;30.73;35.87;99631.75;5038072;27;97157;-77
2021/07/01 08:01:02;;;;;;;11.07;3.65;;;;;;;30.94;35.89;99635.41;5020581;27;100395;-78
2021/07/01 08:03:32;;;;;;;7.10;1.88;;;;;;;29.97;37.36;99631.56;5028335;28;97613;-77
2021/07/01 08:05:57;;;;;;;;;;;;;;;31.47;35.09;99633.75;5030450;28;101348;-78
2021/07/01 08:08:23;;;;;;;3.28;1.70;;;;;;;32.88;33.15;99627.31;5010076;28;97354;-77
2021/07/01 08:10:50;;;;;;;2.78;1.40;;;;;;;33.76;31.95;99634.88;4997111;27;97007;-77
2021/07/01 08:13:20;;;;;;;4.47;2.00;;;;;;;34.62;30.48;99627.91;5013132;28;98203;-78
2021/07/01 08:15:46;;;;;;;;;;;;;;;34.56;30.59;99636.97;5010996;28;101384;-80
2021/07/01 08:18:20;;;;;;;1.85;1.58;;;;;;;34.84;30.46;99628.28;4989909;28;96817;-81
2021/07/01 08:20:46;;;;;;;5.03;1.70;;;;;;;34.97;29.02;99628.13;5011230;28;97186;-78
2021/07/01 08:23:13;;;;;;;2.38;1.45;;;;;;;35.18;29.13;99626.84;5012421;28;101087;-79
2021/07/01 08:25:39;;;;;;;1.50;1.40;;;;;;;35.73;29.07;99624.00;5013730;28;101494;-78
2021/07/01 08:28:04;;;;;;;2.08;1.60;;;;;;;36.04;28.56;99622.06;4992661;28;97012;-78
2021/07/01 08:30:30;;;;;;;4.95;1.80;;;;;;;35.92;28.65;99618.44;5044486;27;97261;-78
2021/07/01 08:32:58;;;;;;;4.13;1.50;;;;;;;36.81;27.55;99626.59;5008737;28;101389;-81
2021/07/01 08:35:27;;;;;;;3.97;1.42;;;;;;;34.61;29.36;99615.31;4988336;28;101731;-79
2021/07/01 08:37:56;;;;;;;4.80;2.27;;;;;;;32.65;32.54;99617.75;5000824;28;97052;-79
2021/07/01 08:40:22;;;;;;;;;;;;;;;31.69;32.96;99612.75;4992316;28;97324;-79
2021/07/01 08:42:52;;;;;;;2.38;2.22;;;;;;;33.09;31.69;99626.22;5009781;28;97508;-79
2021/07/01 08:45:18;;;;;;;2.13;1.52;;;;;;;32.24;33.25;99623.44;5044229;27;97993;-79
2021/07/01 08:47:44;;;;;;;2.30;1.83;;;;;;;32.95;31.85;99624.56;5028436;27;97399;-79
2021/07/01 08:50:15;;;;;;;1.80;1.70;;;;;;;31.45;33.82;99624.19;5011842;28;97018;-77
2021/07/01 08:52:46;;;;;;;2.70;1.70;;;;;;;33.27;31.48;99614.63;5015166;28;100549;-80
2021/07/01 08:55:17;;;;;;;5.85;2.13;;;;;;;32.78;31.53;99613.34;5012884;28;101200;-81
2021/07/01 08:57:47;;;;;;;2.25;1.90;;;;;;;32.71;32.39;99623.41;4989548;28;97001;-80
2021/07/01 09:00:15;;;;;;;2.13;1.35;;;;;;;34.12;30.94;99617.03;5024866;27;97262;-80
2021/07/01 09:02:43;;;;;;;2.95;1.60;;;;;;;33.52;30.83;99609.31;5048282;27;101192;-80
2021/07/01 09:05:15;;;;;;;1.70;1.50;;;;;;;32.11;32.60;99621.56;5031577;27;100899;-76
2021/07/01 09:07:43;;;;;;;1.88;1.77;;;;;;;32.43;32.89;99621.75;5050722;27;96882;-81
2021/07/01 09:10:10;;;;;;;1.95;1.50;;;;;;;32.29;33.07;99611.94;5034226;27;97246;-81
2021/07/01 09:12:41;;;;;;;2.78;2.22;;;;;;;31.78;32.94;99622.34;5063950;27;98603;-81
2021/07/01 09:15:09;;;;;;;3.13;1.70;;;;;;;31.58;33.40;99616.88;5047518;27;101564;-81
2021/07/01 09:17:36;;;;;;;2.53;1.48;;;;;;;30.85;34.79;99616.63;5055659;27;97217;-81
2021/07/01 09:20:05;;;;;;;5.68;1.58;;;;;;;30.62;33.16;99622.28;5072808;27;96860;-85
2021/07/01 09:22:31;;;;;;;5.82;2.00;;;;;;;31.46;33.65;99615.84;5052555;27;101040;-81
2021/07/01 09:24:56;;;;;;;1.98;1.70;;;;;;;31.91;32.53;99616.16;5055133;27;100949;-81
2021/07/01 09:27:23;;;;;;;2.22;1.70;;;;;;;32.01;32.60;99621.16;5055076;27;97290;-81
2021/07/01 09:29:49;;;;;;;4.28;1.50;;;;;;;32.10;32.54;99609.03;5074405;27;98019;-81
2021/07/01 09:32:17;;;;;;;6.47;1.65;;;;;;;31.41;33.58;99610.19;5055628;27;101412;-81
2021/07/01 09:34:44;;;;;;;1.40;1.23;;;;;;;31.56;32.56;99608.16;5037941;27;100987;-87
2021/07/01 09:37:10;;;;;;;1.52;1.20;;;;;;;31.79;32.78;99613.19;5037138;27;96779;-85
2021/07/01 09:39:37;;;;;;;2.38;1.20;;;;;;;31.17;32.89;99608.00;5048035;27;96857;-86
2021/07/01 09:42:05;;;;;;;1.70;1.13;;;;;;;31.54;32.67;99604.81;5055609;27;97151;-86
2021/07/01 09:44:32;;;;;;;2.38;1.38;;;;;;;31.57;31.87;99596.25;5038043;27;101069;-86
2021/07/01 09:47:04;;;;;;;2.75;1.05;;;;;;;31.69;32.37;99606.50;5056169;27;97236;-83
2021/07/01 09:49:32;;;;;;;1.85;1.05;;;;;;;31.25;33.74;99595.09;5055067;27;96731;-86
2021/07/01 09:52:02;;;;;;;1.85;1.20;;;;;;;30.66;34.59;99598.34;5073655;27;98062;-86
2021/07/01 09:54:28;;;;;;;2.57;1.50;;;;;;;30.23;35.06;99602.06;5038367;27;101706;-86
2021/07/01 09:56:56;;;;;;;5.70;1.30;;;;;;;29.82;35.74;99596.50;5039626;27;97335;-86
2021/07/01 09:59:30;;;;;;;1.30;1.20;;;;;;;29.47;36.32;99603.63;5038660;27;96965;-86
2021/07/01 10:02:17;;;;;;;3.00;1.10;;;;;;;29.16;36.48;99603.88;5056212;27;100061;-86
2021/07/01 10:04:46;;;;;;;1.65;1.10;;;;;;;29.16;37.15;99601.19;5052462;27;100311;-86
2021/07/01 10:07:20;;;;;;;3.33;1.20;;;;;;;29.36;36.57;99612.22;5038791;27;96952;-82
2021/07/01 10:09:52;;;;;;;4.53;1.50;;;;;;;29.45;37.08;99605.66;5046925;27;97321;-86
2021/07/01 10:12:30;;;;;;;3.80;1.48;;;;;;;29.54;37.30;99612.63;5037956;27;101206;-82
2021/07/01 10:14:58;;;;;;;2.65;1.20;;;;;;;29.93;36.74;99609.50;5051450;27;101907;-86
2021/07/01 10:17:25;;;;;;;4.15;1.42;;;;;;;29.18;36.98;99605.38;5051836;27;97113;-84
2021/07/01 10:20:06;;;;;;;4.53;1.55;;;;;;;28.50;38.18;99618.13;5070963;27;97323;-84
2021/07/01 10:22:37;;;;;;;4.72;1.35;;;;;;;28.28;38.68;99619.03;5069093;27;101727;-86
2021/07/01 10:25:03;;;;;;;3.25;1.48;;;;;;;28.19;39.20;99629.06;5055193;27;100804;-84
2021/07/01 10:27:32;;;;;;;2.33;1.63;;;;;;;28.22;38.65;99631.38;5035723;27;97110;-86
2021/07/01 10:30:00;;;;;;;1.67;1.58;;;;;;;28.00;39.13;99627.69;5067539;27;97096;-86
2021/07/01 10:32:46;;;;;;;1.95;1.50;;;;;;;27.80;39.50;99621.13;5072790;27;97959;-86
2021/07/01 10:35:25;;;;;;;2.97;1.40;;;;;;;27.66;39.54;99620.00;5036373;27;102053;-84
2021/07/01 10:38:07;;;;;;;4.43;1.48;;;;;;;27.96;39.72;99621.00;5055752;27;97207;-86
2021/07/01 10:40:49;;;;;;;2.67;1.50;;;;;;;28.20;39.27;99619.94;5039527;27;97404;-84
2021/07/01 10:43:17;;;;;;;2.55;1.50;;;;;;;28.37;38.90;99609.81;5051402;27;98307;-82
2021/07/01 10:45:58;;;;;;;1.55;1.27;;;;;;;28.40;39.71;99621.09;5056745;27;101411;-84
2021/07/01 10:48:26;;;;;;;2.05;1.20;;;;;;;28.39;39.42;99614.03;5073092;27;97358;-84
2021/07/01 10:50:53;;;;;;;1.63;1.35;;;;;;;28.25;40.04;99620.22;5056704;27;97202;-84
2021/07/01 10:53:27;;;;;;;2.30;1.30;;;;;;;28.17;39.76;99623.00;5034764;27;100626;-84
2021/07/01 10:55:58;;;;;;;2.67;1.52;;;;;;;28.06;39.77;99626.13;5066919;27;100033;-84
2021/07/01 10:58:24;;;;;;;2.38;1.58;;;;;;;27.88;40.12;99621.06;5038988;27;97146;-84
2021/07/01 11:00:50;;;;;;;2.47;1.42;;;;;;;27.83;39.83;99624.28;5053490;27;96993;-84
2021/07/01 11:03:25;;;;;;;3.35;1.30;;;;;;;27.74;40.02;99628.03;5051636;27;99521;-79
2021/07/01 11:05:52;;;;;;;5.55;1.50;;;;;;;27.51;40.14;99628.03;5068161;27;98417;-84
2021/07/01 11:08:29;;;;;;;1.20;1.20;;;;;;;27.42;40.28;99631.78;5052532;27;96746;-81
2021/07/01 11:10:55;;;;;;;6.60;1.45;;;;;;;27.22;39.78;99621.44;5053099;27;97292;-85
2021/07/01 11:13:24;;;;;;;4.38;1.77;;;;;;;27.04;40.33;99635.16;5033994;27;101286;-82
2021/07/01 11:16:14;;;;;;;1.30;1.20;;;;;;;26.89;41.13;99634.22;5038819;27;99834;-84
2021/07/01 11:18:42;;;;;;;3.55;1.50;;;;;;;26.86;41.46;99640.78;5052979;27;96613;-83
2021/07/01 11:21:14;;;;;;;1.30;1.20;;;;;;;26.76;40.17;99629.38;5052481;27;96829;-84
2021/07/01 11:23:41;;;;;;;1.40;1.30;;;;;;;26.67;40.54;99635.78;5037360;27;101607;-83
2021/07/01 11:26:27;;;;;;;3.83;1.20;;;;;;;26.71;40.84;99636.31;5045540;27;101490;-84
2021/07/01 11:28:53;;;;;;;1.65;1.10;;;;;;;26.74;40.83;99636.78;5071605;27;98066;-83
2021/07/01 11:31:32;;;;;;;3.28;1.60;;;;;;;26.62;41.71;99630.94;5054950;27;97151;-83
2021/07/01 11:33:59;;;;;;;2.00;1.42;;;;;;;26.71;42.12;99644.38;5040242;27;98546;-84
2021/07/01 11:36:24;;;;;;;1.70;1.48;;;;;;;26.74;40.67;99633.25;5055107;27;100741;-86
2021/07/01 11:38:50;;;;;;;2.13;1.40;;;;;;;26.67;41.06;99641.16;5042307;27;97372;-83
2021/07/01 11:41:16;;;;;;;2.45;1.30;;;;;;;26.64;40.63;99636.13;5045653;27;98965;-80
2021/07/01 11:43:45;;;;;;;1.50;1.40;;;;;;;26.53;40.93;99641.88;5053515;27;101114;-83
2021/07/01 11:46:10;;;;;;;2.72;1.88;;;;;;;26.58;41.35;99637.66;5053332;27;100757;-85
2021/07/01 11:48:39;;;;;;;2.33;1.77;;;;;;;26.65;40.68;99632.44;5051551;27;97429;-85
2021/07/01 11:51:06;;;;;;;5.47;1.58;;;;;;;26.49;40.22;99632.44;5045414;27;97187;-87